createdAt,value
2016-02-27T00:00:03.293Z,955.54
2016-02-27T00:01:03.297Z,955.51
2016-02-27T00:02:03.298Z,955.52
2016-02-27T00:03:03.285Z,955.48
2016-02-27T00:04:03.289Z,955.49
2016-02-27T00:05:03.291Z,955.45
2016-02-27T00:06:03.293Z,955.45
2016-02-27T00:07:03.280Z,955.47
2016-02-27T00:08:03.283Z,955.51
2016-02-27T00:09:03.286Z,955.47
2016-02-27T00:10:03.288Z,955.49
2016-02-27T00:11:03.276Z,955.51
2016-02-27T00:12:03.278Z,955.5
2016-02-27T00:13:03.281Z,955.53
2016-02-27T00:14:03.284Z,955.54
2016-02-27T00:15:03.271Z,955.54
2016-02-27T00:16:03.273Z,955.55
2016-02-27T00:17:03.276Z,955.55
2016-02-27T00:18:03.264Z,955.55
2016-02-27T00:19:03.267Z,955.51
2016-02-27T00:20:03.269Z,955.52
2016-02-27T00:21:03.272Z,955.51
2016-02-27T00:22:03.275Z,955.5
2016-02-27T00:23:03.261Z,955.51
2016-02-27T00:24:03.264Z,955.53
2016-02-27T00:25:03.266Z,955.5
2016-02-27T00:26:03.269Z,955.48
2016-02-27T00:27:03.256Z,955.42
2016-02-27T00:28:03.258Z,955.44
2016-02-27T00:29:03.261Z,955.42
2016-02-27T00:30:03.264Z,955.43
2016-02-27T00:31:03.251Z,955.46
2016-02-27T00:32:03.255Z,955.42
2016-02-27T00:33:03.257Z,955.42
2016-02-27T00:34:03.260Z,955.41
2016-02-27T00:35:03.247Z,955.41
2016-02-27T00:36:03.250Z,955.42
2016-02-27T00:37:03.252Z,955.45
2016-02-27T00:38:03.255Z,955.41
2016-02-27T00:39:03.257Z,955.41
2016-02-27T00:40:03.244Z,955.4
2016-02-27T00:41:03.247Z,955.45
2016-02-27T00:42:03.249Z,955.37
2016-02-27T00:43:03.237Z,955.39
2016-02-27T00:44:03.255Z,955.42
2016-02-27T00:45:03.242Z,955.43
2016-02-27T00:46:03.246Z,955.4
2016-02-27T00:47:03.232Z,955.38
2016-02-27T00:48:03.234Z,955.42
2016-02-27T00:49:03.238Z,955.43
2016-02-27T00:50:03.240Z,955.38
2016-02-27T00:51:03.227Z,955.39
2016-02-27T00:52:03.230Z,955.37
2016-02-27T00:53:03.233Z,955.37
2016-02-27T00:54:03.251Z,955.35
2016-02-27T00:55:03.222Z,955.31
2016-02-27T00:56:03.225Z,955.35
2016-02-27T00:57:03.228Z,955.31
2016-02-27T00:58:03.230Z,955.31
2016-02-27T00:59:03.233Z,955.26
2016-02-27T01:00:03.220Z,955.28
2016-02-27T01:01:03.222Z,955.3
2016-02-27T01:02:03.225Z,955.28
2016-02-27T01:03:03.213Z,955.28
2016-02-27T01:04:03.216Z,955.29
2016-02-27T01:05:03.218Z,955.25
2016-02-27T01:06:03.221Z,955.24
2016-02-27T01:07:03.208Z,955.23
2016-02-27T01:08:03.211Z,955.18
2016-02-27T01:09:03.213Z,955.15
2016-02-27T01:10:03.216Z,955.14
2016-02-27T01:11:03.203Z,955.14
2016-02-27T01:12:03.205Z,955.11
2016-02-27T01:13:03.208Z,955.13
2016-02-27T01:14:03.210Z,955.1
2016-02-27T01:15:03.198Z,955.15
2016-02-27T01:16:03.201Z,955.16
2016-02-27T01:17:03.204Z,955.19
2016-02-27T01:18:03.206Z,955.19
2016-02-27T01:19:03.192Z,955.24
2016-02-27T01:20:03.196Z,955.24
2016-02-27T01:21:03.199Z,955.23
2016-02-27T01:22:03.201Z,955.23
2016-02-27T01:23:03.189Z,955.22
2016-02-27T01:24:03.192Z,955.24
2016-02-27T01:25:03.194Z,955.25
2016-02-27T01:26:03.197Z,955.26
2016-02-27T01:27:03.183Z,955.25
2016-02-27T01:28:03.186Z,955.25
2016-02-27T01:29:03.188Z,955.24
2016-02-27T01:30:03.175Z,955.2
2016-02-27T01:31:03.179Z,955.17
2016-02-27T01:32:03.181Z,955.15
2016-02-27T01:33:03.183Z,955.14
2016-02-27T01:34:03.187Z,955.13
2016-02-27T01:35:03.174Z,955.12
2016-02-27T01:36:03.177Z,955.08
2016-02-27T01:37:03.179Z,955.14
2016-02-27T01:38:03.166Z,955.11
2016-02-27T01:39:03.169Z,955.07
2016-02-27T01:40:03.171Z,955.07
2016-02-27T01:41:03.174Z,955.06
2016-02-27T01:42:03.177Z,955.06
2016-02-27T01:43:03.163Z,955.05
2016-02-27T01:44:03.166Z,955.05
2016-02-27T01:45:03.169Z,955.04
2016-02-27T01:46:03.157Z,955.01
2016-02-27T01:47:03.159Z,955.04
2016-02-27T01:48:03.162Z,955.04
2016-02-27T01:49:03.165Z,955.04
2016-02-27T01:50:03.151Z,954.99
2016-02-27T01:51:03.154Z,954.96
2016-02-27T01:52:03.156Z,955
2016-02-27T01:53:03.159Z,954.97
2016-02-27T01:54:03.147Z,954.98
2016-02-27T01:55:03.149Z,954.96
2016-02-27T01:56:03.153Z,954.93
2016-02-27T01:57:03.155Z,954.99
2016-02-27T01:58:03.142Z,954.95
2016-02-27T01:59:03.145Z,954.94
2016-02-27T02:00:03.147Z,954.91
2016-02-27T02:01:03.150Z,954.97
2016-02-27T02:02:03.136Z,954.94
2016-02-27T02:03:03.155Z,954.92
2016-02-27T02:04:03.142Z,954.92
2016-02-27T02:05:03.145Z,954.91
2016-02-27T02:06:03.133Z,954.87
2016-02-27T02:07:03.135Z,954.86
2016-02-27T02:08:03.138Z,954.87
2016-02-27T02:09:03.124Z,954.85
2016-02-27T02:10:03.127Z,954.83
2016-02-27T02:11:03.130Z,954.79
2016-02-27T02:12:03.132Z,954.82
2016-02-27T02:13:03.135Z,954.82
2016-02-27T02:14:03.121Z,954.79
2016-02-27T02:15:03.125Z,954.79
2016-02-27T02:16:03.128Z,954.8
2016-02-27T02:17:03.130Z,954.76
2016-02-27T02:18:03.118Z,954.79
2016-02-27T02:19:03.120Z,954.74
2016-02-27T02:20:03.123Z,954.72
2016-02-27T02:21:03.109Z,954.71
2016-02-27T02:22:03.112Z,954.71
2016-02-27T02:23:03.116Z,954.65
2016-02-27T02:24:03.118Z,954.67
2016-02-27T02:25:03.106Z,954.7
2016-02-27T02:26:03.108Z,954.66
2016-02-27T02:27:03.111Z,954.66
2016-02-27T02:28:03.114Z,954.66
2016-02-27T02:29:03.100Z,954.69
2016-02-27T02:30:03.103Z,954.7
2016-02-27T02:31:03.106Z,954.69
2016-02-27T02:32:03.092Z,954.71
2016-02-27T02:33:03.095Z,954.72
2016-02-27T02:34:03.098Z,954.76
2016-02-27T02:35:03.101Z,954.74
2016-02-27T02:36:03.103Z,954.74
2016-02-27T02:37:03.091Z,954.7
2016-02-27T02:38:03.093Z,954.68
2016-02-27T02:39:03.096Z,954.69
2016-02-27T02:40:03.082Z,954.66
2016-02-27T02:41:03.085Z,954.64
2016-02-27T02:42:03.089Z,954.68
2016-02-27T02:43:03.091Z,954.6
2016-02-27T02:44:03.078Z,954.61
2016-02-27T02:45:03.080Z,954.61
2016-02-27T02:46:03.083Z,954.63
2016-02-27T02:47:03.101Z,954.61
2016-02-27T02:48:03.073Z,954.6
2016-02-27T02:49:03.076Z,954.62
2016-02-27T02:50:03.079Z,954.61
2016-02-27T02:51:03.066Z,954.62
2016-02-27T02:52:03.068Z,954.64
2016-02-27T02:53:03.071Z,954.62
2016-02-27T02:54:03.074Z,954.66
2016-02-27T02:55:03.092Z,954.64
2016-02-27T02:56:03.064Z,954.65
2016-02-27T02:57:03.066Z,954.64
2016-02-27T02:58:03.069Z,954.57
2016-02-27T02:59:03.056Z,954.55
2016-02-27T03:00:03.058Z,954.57
2016-02-27T03:01:03.062Z,954.56
2016-02-27T03:02:03.064Z,954.56
2016-02-27T03:03:03.051Z,954.55
2016-02-27T03:04:03.053Z,954.51
2016-02-27T03:05:03.056Z,954.52
2016-02-27T03:06:03.059Z,954.47
2016-02-27T03:07:03.061Z,954.44
2016-02-27T03:08:03.049Z,954.47
2016-02-27T03:09:03.052Z,954.42
2016-02-27T03:10:03.039Z,954.43
2016-02-27T03:11:03.041Z,954.42
2016-02-27T03:12:03.044Z,954.38
2016-02-27T03:13:03.047Z,954.41
2016-02-27T03:14:03.033Z,954.42
2016-02-27T03:15:03.036Z,954.38
2016-02-27T03:16:03.038Z,954.37
2016-02-27T03:17:03.042Z,954.35
2016-02-27T03:18:03.029Z,954.31
2016-02-27T03:19:03.032Z,954.27
2016-02-27T03:20:03.065Z,954.29
2016-02-27T03:21:03.037Z,954.29
2016-02-27T03:22:03.024Z,954.28
2016-02-27T03:23:03.026Z,954.28
2016-02-27T03:24:03.029Z,954.26
2016-02-27T03:25:03.032Z,954.23
2016-02-27T03:26:03.035Z,954.27
2016-02-27T03:27:03.022Z,954.23
2016-02-27T03:28:03.025Z,954.23
2016-02-27T03:29:03.012Z,954.23
2016-02-27T03:30:03.014Z,954.2
2016-02-27T03:31:03.017Z,954.23
2016-02-27T03:32:03.020Z,954.22
2016-02-27T03:33:03.006Z,954.24
2016-02-27T03:34:03.009Z,954.25
2016-02-27T03:35:03.011Z,954.25
2016-02-27T03:36:03.000Z,954.21
2016-02-27T03:37:03.002Z,954.25
2016-02-27T03:38:03.020Z,954.22
2016-02-27T03:39:03.008Z,954.22
2016-02-27T03:40:03.010Z,954.2
2016-02-27T03:41:02.997Z,954.2
2016-02-27T03:42:02.999Z,954.22
2016-02-27T03:43:03.002Z,954.21
2016-02-27T03:44:03.005Z,954.22
2016-02-27T03:45:02.992Z,954.19
2016-02-27T03:46:02.995Z,954.19
2016-02-27T03:47:02.982Z,954.21
2016-02-27T03:48:02.985Z,954.2
2016-02-27T03:49:02.988Z,954.21
2016-02-27T03:50:02.990Z,954.24
2016-02-27T03:51:02.976Z,954.24
2016-02-27T03:52:02.980Z,954.22
2016-02-27T03:53:02.982Z,954.22
2016-02-27T03:54:02.985Z,954.24
2016-02-27T03:55:02.988Z,954.26
2016-02-27T03:56:02.990Z,954.27
2016-02-27T03:57:02.978Z,954.33
2016-02-27T03:58:02.980Z,954.3
2016-02-27T03:59:02.983Z,954.32
2016-02-27T04:00:02.970Z,954.33
2016-02-27T04:01:02.973Z,954.33
2016-02-27T04:02:02.976Z,954.32
2016-02-27T04:03:02.962Z,954.33
2016-02-27T04:04:02.965Z,954.34
2016-02-27T04:05:02.967Z,954.35
2016-02-27T04:06:02.955Z,954.33
2016-02-27T04:07:02.957Z,954.35
2016-02-27T04:08:02.961Z,954.33
2016-02-27T04:09:02.964Z,954.32
2016-02-27T04:10:02.966Z,954.31
2016-02-27T04:11:02.953Z,954.32
2016-02-27T04:12:02.956Z,954.34
2016-02-27T04:13:02.958Z,954.36
2016-02-27T04:14:02.945Z,954.35
2016-02-27T04:15:02.947Z,954.38
2016-02-27T04:16:02.950Z,954.36
2016-02-27T04:17:02.952Z,954.38
2016-02-27T04:18:02.940Z,954.4
2016-02-27T04:19:02.944Z,954.39
2016-02-27T04:20:02.946Z,954.41
2016-02-27T04:21:02.933Z,954.42
2016-02-27T04:22:02.935Z,954.41
2016-02-27T04:23:02.938Z,954.4
2016-02-27T04:24:02.925Z,954.39
2016-02-27T04:25:02.929Z,954.4
2016-02-27T04:26:02.931Z,954.4
2016-02-27T04:27:02.934Z,954.36
2016-02-27T04:28:02.937Z,954.39
2016-02-27T04:29:02.923Z,954.36
2016-02-27T04:30:02.914Z,954.38
2016-02-27T04:31:02.904Z,954.39
2016-02-27T04:32:02.877Z,954.39
2016-02-27T04:33:02.867Z,954.37
2016-02-27T04:34:02.856Z,954.37
2016-02-27T04:35:02.854Z,954.41
2016-02-27T04:36:02.836Z,954.36
2016-02-27T04:37:02.849Z,954.33
2016-02-27T04:38:02.832Z,954.35
2016-02-27T04:39:02.829Z,954.3
2016-02-27T04:40:02.814Z,954.3
2016-02-27T04:41:02.815Z,954.28
2016-02-27T04:42:02.816Z,954.31
2016-02-27T04:43:02.802Z,954.28
2016-02-27T04:44:02.803Z,954.3
2016-02-27T04:45:02.805Z,954.31
2016-02-27T04:46:02.791Z,954.33
2016-02-27T04:47:02.793Z,954.31
2016-02-27T04:48:02.810Z,954.33
2016-02-27T04:49:02.797Z,954.34
2016-02-27T04:50:02.799Z,954.34
2016-02-27T04:51:02.786Z,954.35
2016-02-27T04:52:02.788Z,954.35
2016-02-27T04:53:02.791Z,954.34
2016-02-27T04:54:02.778Z,954.38
2016-02-27T04:55:02.780Z,954.35
2016-02-27T04:56:02.783Z,954.34
2016-02-27T04:57:02.786Z,954.29
2016-02-27T04:58:02.788Z,954.31
2016-02-27T04:59:02.791Z,954.28
2016-02-27T05:00:02.777Z,954.27
2016-02-27T05:01:02.780Z,954.22
2016-02-27T05:02:02.768Z,954.21
2016-02-27T05:03:02.770Z,954.28
2016-02-27T05:04:02.773Z,954.27
2016-02-27T05:05:02.760Z,954.29
2016-02-27T05:06:02.763Z,954.28
2016-02-27T05:07:02.765Z,954.3
2016-02-27T05:08:02.752Z,954.29
2016-02-27T05:09:02.755Z,954.28
2016-02-27T05:10:02.758Z,954.29
2016-02-27T05:11:02.761Z,954.32
2016-02-27T05:12:02.747Z,954.31
2016-02-27T05:13:02.750Z,954.3
2016-02-27T05:14:02.752Z,954.3
2016-02-27T05:15:02.755Z,954.29
2016-02-27T05:16:02.743Z,954.27
2016-02-27T05:17:02.745Z,954.27
2016-02-27T05:18:02.749Z,954.29
2016-02-27T05:19:02.751Z,954.32
2016-02-27T05:20:02.738Z,954.27
2016-02-27T05:21:02.740Z,954.27
2016-02-27T05:22:02.743Z,954.26
2016-02-27T05:23:02.730Z,954.26
2016-02-27T05:24:02.733Z,954.25
2016-02-27T05:25:02.736Z,954.24
2016-02-27T05:26:02.723Z,954.25
2016-02-27T05:27:02.726Z,954.22
2016-02-27T05:28:02.728Z,954.25
2016-02-27T05:29:02.731Z,954.2
2016-02-27T05:30:02.734Z,954.2
2016-02-27T05:31:02.720Z,954.2
2016-02-27T05:32:02.723Z,954.22
2016-02-27T05:33:02.725Z,954.24
2016-02-27T05:34:02.714Z,954.19
2016-02-27T05:35:02.716Z,954.23
2016-02-27T05:36:02.719Z,954.23
2016-02-27T05:37:02.721Z,954.26
2016-02-27T05:38:02.708Z,954.26
2016-02-27T05:39:02.710Z,954.25
2016-02-27T05:40:02.713Z,954.23
2016-02-27T05:41:02.700Z,954.24
2016-02-27T05:42:02.703Z,954.24
2016-02-27T05:43:02.706Z,954.24
2016-02-27T05:44:02.708Z,954.28
2016-02-27T05:45:02.696Z,954.26
2016-02-27T05:46:02.698Z,954.22
2016-02-27T05:47:02.701Z,954.26
2016-02-27T05:48:02.704Z,954.26
2016-02-27T05:49:02.690Z,954.23
2016-02-27T05:50:02.694Z,954.24
2016-02-27T05:51:02.696Z,954.23
2016-02-27T05:52:02.684Z,954.25
2016-02-27T05:53:02.686Z,954.25
2016-02-27T05:54:02.689Z,954.28
2016-02-27T05:55:02.676Z,954.28
2016-02-27T05:56:02.678Z,954.27
2016-02-27T05:57:02.681Z,954.28
2016-02-27T05:58:02.684Z,954.28
2016-02-27T05:59:02.671Z,954.27
2016-02-27T06:00:02.673Z,954.31
2016-02-27T06:01:02.676Z,954.3
2016-02-27T06:02:02.664Z,954.33
2016-02-27T06:03:02.666Z,954.32
2016-02-27T06:04:02.669Z,954.36
2016-02-27T06:05:02.687Z,954.35
2016-02-27T06:06:02.658Z,954.35
2016-02-27T06:07:02.677Z,954.36
2016-02-27T06:08:02.663Z,954.35
2016-02-27T06:09:02.667Z,954.39
2016-02-27T06:10:02.653Z,954.33
2016-02-27T06:11:02.656Z,954.34
2016-02-27T06:12:02.658Z,954.35
2016-02-27T06:13:02.646Z,954.4
2016-02-27T06:14:02.649Z,954.35
2016-02-27T06:15:02.651Z,954.33
2016-02-27T06:16:02.654Z,954.28
2016-02-27T06:17:02.641Z,954.33
2016-02-27T06:18:02.644Z,954.26
2016-02-27T06:19:02.646Z,954.3
2016-02-27T06:20:02.634Z,954.28
2016-02-27T06:21:02.652Z,954.33
2016-02-27T06:22:02.639Z,954.34
2016-02-27T06:23:02.642Z,954.34
2016-02-27T06:24:02.628Z,954.31
2016-02-27T06:25:02.632Z,954.37
2016-02-27T06:26:02.634Z,954.38
2016-02-27T06:27:02.621Z,954.37
2016-02-27T06:28:02.624Z,954.39
2016-02-27T06:29:02.626Z,954.4
2016-02-27T06:30:02.629Z,954.44
2016-02-27T06:31:02.616Z,954.48
2016-02-27T06:32:02.619Z,954.45
2016-02-27T06:33:02.622Z,954.48
2016-02-27T06:34:02.625Z,954.49
2016-02-27T06:35:02.611Z,954.53
2016-02-27T06:36:02.614Z,954.54
2016-02-27T06:37:02.617Z,954.56
2016-02-27T06:38:02.619Z,954.58
2016-02-27T06:39:02.606Z,954.6
2016-02-27T06:40:02.608Z,954.65
2016-02-27T06:41:02.597Z,954.65
2016-02-27T06:42:02.599Z,954.63
2016-02-27T06:43:02.601Z,954.63
2016-02-27T06:44:02.604Z,954.59
2016-02-27T06:45:02.591Z,954.64
2016-02-27T06:46:02.594Z,954.59
2016-02-27T06:47:02.596Z,954.63
2016-02-27T06:48:02.599Z,954.62
2016-02-27T06:49:02.587Z,954.6
2016-02-27T06:50:02.590Z,954.61
2016-02-27T06:51:02.593Z,954.61
2016-02-27T06:52:02.579Z,954.63
2016-02-27T06:53:02.582Z,954.61
2016-02-27T06:54:02.585Z,954.61
2016-02-27T06:55:02.587Z,954.62
2016-02-27T06:56:02.573Z,954.62
2016-02-27T06:57:02.576Z,954.68
2016-02-27T06:58:02.579Z,954.65
2016-02-27T06:59:02.581Z,954.64
2016-02-27T07:00:02.570Z,954.65
2016-02-27T07:01:02.572Z,954.68
2016-02-27T07:02:02.575Z,954.72
2016-02-27T07:03:02.578Z,954.69
2016-02-27T07:04:02.564Z,954.69
2016-02-27T07:05:02.567Z,954.72
2016-02-27T07:06:02.569Z,954.76
2016-02-27T07:07:02.556Z,954.78
2016-02-27T07:08:02.560Z,954.79
2016-02-27T07:09:02.562Z,954.77
2016-02-27T07:10:02.565Z,954.75
2016-02-27T07:11:02.567Z,954.76
2016-02-27T07:12:02.555Z,954.73
2016-02-27T07:13:02.557Z,954.77
2016-02-27T07:14:02.560Z,954.77
2016-02-27T07:15:02.563Z,954.76
2016-02-27T07:16:02.566Z,954.77
2016-02-27T07:17:02.553Z,954.81
2016-02-27T07:18:02.555Z,954.78
2016-02-27T07:19:02.543Z,954.8
2016-02-27T07:20:02.545Z,954.82
2016-02-27T07:21:02.548Z,954.82
2016-02-27T07:22:02.550Z,954.79
2016-02-27T07:23:02.537Z,954.78
2016-02-27T07:24:02.541Z,954.78
2016-02-27T07:25:02.543Z,954.81
2016-02-27T07:26:02.546Z,954.77
2016-02-27T07:27:02.548Z,954.8
2016-02-27T07:28:02.535Z,954.8
2016-02-27T07:29:02.537Z,954.78
2016-02-27T07:30:02.540Z,954.83
2016-02-27T07:31:02.543Z,954.84
2016-02-27T07:32:02.531Z,954.87
2016-02-27T07:33:02.565Z,954.87
2016-02-27T07:34:02.536Z,954.87
2016-02-27T07:35:02.539Z,954.92
2016-02-27T07:36:02.525Z,954.91
2016-02-27T07:37:02.528Z,954.91
2016-02-27T07:38:02.530Z,954.93
2016-02-27T07:39:02.533Z,954.95
2016-02-27T07:40:02.521Z,954.99
2016-02-27T07:41:02.539Z,954.96
2016-02-27T07:42:02.526Z,954.96
2016-02-27T07:43:02.528Z,954.98
2016-02-27T07:44:02.531Z,954.93
2016-02-27T07:45:02.518Z,954.94
2016-02-27T07:46:02.521Z,954.98
2016-02-27T07:47:02.524Z,955.01
2016-02-27T07:48:02.527Z,954.98
2016-02-27T07:49:02.514Z,954.97
2016-02-27T07:50:02.516Z,954.98
2016-02-27T07:51:02.519Z,955
2016-02-27T07:52:02.522Z,955.01
2016-02-27T07:53:02.524Z,955.04
2016-02-27T07:54:02.527Z,955.01
2016-02-27T07:55:02.514Z,955.04
2016-02-27T07:56:02.517Z,955.04
2016-02-27T07:57:02.520Z,954.99
2016-02-27T07:58:02.522Z,955.05
2016-02-27T07:59:02.525Z,955.08
2016-02-27T08:00:02.512Z,955.07
2016-02-27T08:01:02.515Z,955.05
2016-02-27T08:02:02.517Z,955.09
2016-02-27T08:03:02.520Z,955.07
2016-02-27T08:04:02.523Z,955.05
2016-02-27T08:05:02.510Z,955.02
2016-02-27T08:06:02.528Z,955.02
2016-02-27T08:07:02.515Z,955.02
2016-02-27T08:08:02.518Z,954.99
2016-02-27T08:09:02.520Z,954.96
2016-02-27T08:10:02.523Z,954.95
2016-02-27T08:11:02.510Z,954.91
2016-02-27T08:12:02.544Z,954.94
2016-02-27T08:13:02.516Z,954.89
2016-02-27T08:14:02.518Z,954.93
2016-02-27T08:15:02.521Z,954.92
2016-02-27T08:16:02.524Z,954.9
2016-02-27T08:17:02.527Z,954.9
2016-02-27T08:18:02.513Z,954.91
2016-02-27T08:19:02.516Z,954.88
2016-02-27T08:20:02.519Z,954.87
2016-02-27T08:21:02.522Z,954.83
2016-02-27T08:22:02.525Z,954.83
2016-02-27T08:23:02.527Z,954.8
2016-02-27T08:24:02.513Z,954.79
2016-02-27T08:25:02.533Z,954.74
2016-02-27T08:26:02.551Z,954.75
2016-02-27T08:27:02.522Z,954.72
2016-02-27T08:28:02.524Z,954.69
2016-02-27T08:29:02.527Z,954.66
2016-02-27T08:30:02.529Z,954.65
2016-02-27T08:31:02.533Z,954.65
2016-02-27T08:32:02.535Z,954.65
2016-02-27T08:33:02.523Z,954.66
2016-02-27T08:34:02.525Z,954.67
2016-02-27T08:35:02.543Z,954.65
2016-02-27T08:36:02.531Z,954.65
2016-02-27T08:37:02.549Z,954.66
2016-02-27T08:38:02.537Z,954.68
2016-02-27T08:39:02.539Z,954.65
2016-02-27T08:40:02.526Z,954.64
2016-02-27T08:41:02.545Z,954.69
2016-02-27T08:42:02.531Z,954.68
2016-02-27T08:43:02.534Z,954.66
2016-02-27T08:44:02.537Z,954.66
2016-02-27T08:45:02.539Z,954.69
2016-02-27T08:46:02.542Z,954.68
2016-02-27T08:47:02.560Z,954.7
2016-02-27T08:48:02.547Z,954.71
2016-02-27T08:49:02.549Z,954.74
2016-02-27T08:50:02.553Z,954.72
2016-02-27T08:51:02.540Z,954.74
2016-02-27T08:52:02.543Z,954.7
2016-02-27T08:53:02.546Z,954.74
2016-02-27T08:54:02.548Z,954.74
2016-02-27T08:55:02.551Z,954.71
2016-02-27T08:56:02.554Z,954.71
2016-02-27T08:57:02.556Z,954.69
2016-02-27T08:58:02.559Z,954.71
2016-02-27T08:59:02.561Z,954.72
2016-02-27T09:00:02.564Z,954.73
2016-02-27T09:01:02.567Z,954.7
2016-02-27T09:02:02.570Z,954.7
2016-02-27T09:03:02.557Z,954.7
2016-02-27T09:04:02.559Z,954.68
2016-02-27T09:05:02.562Z,954.68
2016-02-27T09:06:02.564Z,954.66
2016-02-27T09:07:02.567Z,954.65
2016-02-27T09:08:02.570Z,954.69
2016-02-27T09:09:02.572Z,954.7
2016-02-27T09:10:02.575Z,954.67
2016-02-27T09:11:02.578Z,954.72
2016-02-27T09:12:02.581Z,954.72
2016-02-27T09:13:02.584Z,954.73
2016-02-27T09:14:02.586Z,954.74
2016-02-27T09:15:02.573Z,954.76
2016-02-27T09:16:02.576Z,954.74
2016-02-27T09:17:02.578Z,954.69
2016-02-27T09:18:02.581Z,954.7
2016-02-27T09:19:02.583Z,954.68
2016-02-27T09:20:02.586Z,954.71
2016-02-27T09:21:02.589Z,954.69
2016-02-27T09:22:02.591Z,954.66
2016-02-27T09:23:02.594Z,954.66
2016-02-27T09:24:02.597Z,954.69
2016-02-27T09:25:02.599Z,954.66
2016-02-27T09:26:02.603Z,954.67
2016-02-27T09:27:02.605Z,954.69
2016-02-27T09:28:02.607Z,954.69
2016-02-27T09:29:02.611Z,954.66
2016-02-27T09:30:02.613Z,954.65
2016-02-27T09:31:02.616Z,954.68
2016-02-27T09:32:02.603Z,954.61
2016-02-27T09:33:02.606Z,954.62
2016-02-27T09:34:02.623Z,954.62
2016-02-27T09:35:02.626Z,954.63
2016-02-27T09:36:02.614Z,954.66
2016-02-27T09:37:02.617Z,954.62
2016-02-27T09:38:02.620Z,954.61
2016-02-27T09:39:02.622Z,954.62
2016-02-27T09:40:02.625Z,954.62
2016-02-27T09:41:02.628Z,954.6
2016-02-27T09:42:02.630Z,954.61
2016-02-27T09:43:02.633Z,954.63
2016-02-27T09:44:02.636Z,954.62
2016-02-27T09:45:02.639Z,954.67
2016-02-27T09:46:02.625Z,954.68
2016-02-27T09:47:02.628Z,954.69
2016-02-27T09:48:02.630Z,954.7
2016-02-27T09:49:02.633Z,954.7
2016-02-27T09:50:02.636Z,954.69
2016-02-27T09:51:02.638Z,954.67
2016-02-27T09:52:02.641Z,954.63
2016-02-27T09:53:02.643Z,954.65
2016-02-27T09:54:02.647Z,954.71
2016-02-27T09:55:02.650Z,954.7
2016-02-27T09:56:02.652Z,954.7
2016-02-27T09:57:02.655Z,954.65
2016-02-27T09:58:02.658Z,954.66
2016-02-27T09:59:02.660Z,954.64
2016-02-27T10:00:02.663Z,954.65
2016-02-27T10:01:02.665Z,954.63
2016-02-27T10:02:02.668Z,954.61
2016-02-27T10:03:02.655Z,954.61
2016-02-27T10:04:02.657Z,954.58
2016-02-27T10:05:02.677Z,954.57
2016-02-27T10:06:02.663Z,954.55
2016-02-27T10:07:02.665Z,954.53
2016-02-27T10:08:02.669Z,954.55
2016-02-27T10:09:02.671Z,954.52
2016-02-27T10:10:02.674Z,954.51
2016-02-27T10:11:02.676Z,954.52
2016-02-27T10:12:02.679Z,954.46
2016-02-27T10:13:02.682Z,954.49
2016-02-27T10:14:02.684Z,954.48
2016-02-27T10:15:02.687Z,954.49
2016-02-27T10:16:02.690Z,954.48
2016-02-27T10:17:02.693Z,954.49
2016-02-27T10:18:02.695Z,954.51
2016-02-27T10:19:02.698Z,954.54
2016-02-27T10:20:02.701Z,954.59
2016-02-27T10:21:02.703Z,954.59
2016-02-27T10:22:02.706Z,954.62
2016-02-27T10:23:02.693Z,954.62
2016-02-27T10:24:02.696Z,954.63
2016-02-27T10:25:02.714Z,954.64
2016-02-27T10:26:02.702Z,954.61
2016-02-27T10:27:02.704Z,954.55
2016-02-27T10:28:02.707Z,954.55
2016-02-27T10:29:02.710Z,954.53
2016-02-27T10:30:02.712Z,954.51
2016-02-27T10:31:02.715Z,954.51
2016-02-27T10:32:02.718Z,954.52
2016-02-27T10:33:02.720Z,954.51
2016-02-27T10:34:02.723Z,954.53
2016-02-27T10:35:02.726Z,954.55
2016-02-27T10:36:02.728Z,954.55
2016-02-27T10:37:02.731Z,954.55
2016-02-27T10:38:02.734Z,954.57
2016-02-27T10:39:02.736Z,954.55
2016-02-27T10:40:02.720Z,954.55
2016-02-27T10:41:02.742Z,954.59
2016-02-27T10:42:02.726Z,954.58
2016-02-27T10:43:02.729Z,954.58
2016-02-27T10:44:02.731Z,954.57
2016-02-27T10:45:02.734Z,954.56
2016-02-27T10:46:02.737Z,954.59
2016-02-27T10:47:02.739Z,954.59
2016-02-27T10:48:02.742Z,954.63
2016-02-27T10:49:02.745Z,954.61
2016-02-27T10:50:02.748Z,954.58
2016-02-27T10:51:02.750Z,954.54
2016-02-27T10:52:02.753Z,954.56
2016-02-27T10:53:02.755Z,954.54
2016-02-27T10:54:02.758Z,954.52
2016-02-27T10:55:02.761Z,954.48
2016-02-27T10:56:02.749Z,954.48
2016-02-27T10:57:02.767Z,954.51
2016-02-27T10:58:02.754Z,954.52
2016-02-27T10:59:02.757Z,954.51
2016-02-27T11:00:02.775Z,954.52
2016-02-27T11:01:02.762Z,954.49
2016-02-27T11:02:02.765Z,954.51
2016-02-27T11:03:02.767Z,954.47
2016-02-27T11:04:02.770Z,954.44
2016-02-27T11:05:02.773Z,954.45
2016-02-27T11:06:02.775Z,954.44
2016-02-27T11:07:02.778Z,954.4
2016-02-27T11:08:02.781Z,954.39
2016-02-27T11:09:02.815Z,954.39
2016-02-27T11:10:02.786Z,954.36
2016-02-27T11:11:02.789Z,954.36
2016-02-27T11:12:02.791Z,954.38
2016-02-27T11:13:02.778Z,954.4
2016-02-27T11:14:02.781Z,954.4
2016-02-27T11:15:02.784Z,954.43
2016-02-27T11:16:02.786Z,954.41
2016-02-27T11:17:02.789Z,954.43
2016-02-27T11:18:02.792Z,954.37
2016-02-27T11:19:02.794Z,954.38
2016-02-27T11:20:02.797Z,954.35
2016-02-27T11:21:02.800Z,954.4
2016-02-27T11:22:02.803Z,954.38
2016-02-27T11:23:02.806Z,954.36
2016-02-27T11:24:02.808Z,954.37
2016-02-27T11:25:02.811Z,954.36
2016-02-27T11:26:02.814Z,954.36
2016-02-27T11:27:02.816Z,954.35
2016-02-27T11:28:02.819Z,954.31
2016-02-27T11:29:02.805Z,954.33
2016-02-27T11:30:02.809Z,954.34
2016-02-27T11:31:02.811Z,954.28
2016-02-27T11:32:02.814Z,954.28
2016-02-27T11:33:02.817Z,954.28
2016-02-27T11:34:02.818Z,954.29
2016-02-27T11:35:02.821Z,954.26
2016-02-27T11:36:02.824Z,954.23
2016-02-27T11:37:02.827Z,954.23
2016-02-27T11:38:02.830Z,954.22
2016-02-27T11:39:02.818Z,954.21
2016-02-27T11:40:02.835Z,954.2
2016-02-27T11:41:02.823Z,954.15
2016-02-27T11:42:02.840Z,954.11
2016-02-27T11:43:02.828Z,954.11
2016-02-27T11:44:02.831Z,954.12
2016-02-27T11:45:02.848Z,954.09
2016-02-27T11:46:02.837Z,954.06
2016-02-27T11:47:02.839Z,954.07
2016-02-27T11:48:02.842Z,954.08
2016-02-27T11:49:02.844Z,954.11
2016-02-27T11:50:02.847Z,954.07
2016-02-27T11:51:02.849Z,954.04
2016-02-27T11:52:02.867Z,954.05
2016-02-27T11:53:02.855Z,954.01
2016-02-27T11:54:02.842Z,953.99
2016-02-27T11:55:02.861Z,953.98
2016-02-27T11:56:02.863Z,953.99
2016-02-27T11:57:02.850Z,954
2016-02-27T11:58:02.852Z,953.97
2016-02-27T11:59:02.855Z,954
2016-02-27T12:00:02.858Z,953.93
2016-02-27T12:01:02.860Z,953.93
2016-02-27T12:02:02.864Z,953.91
2016-02-27T12:03:02.866Z,953.88
2016-02-27T12:04:02.869Z,953.83
2016-02-27T12:05:02.871Z,953.83
2016-02-27T12:06:02.874Z,953.81
2016-02-27T12:07:02.877Z,953.8
2016-02-27T12:08:02.863Z,953.76
2016-02-27T12:09:02.882Z,953.79
2016-02-27T12:10:02.869Z,953.76
2016-02-27T12:11:02.888Z,953.77
2016-02-27T12:12:02.874Z,953.8
2016-02-27T12:13:02.877Z,953.78
2016-02-27T12:14:02.879Z,953.77
2016-02-27T12:15:02.882Z,953.79
2016-02-27T12:16:02.885Z,953.8
2016-02-27T12:17:02.887Z,953.77
2016-02-27T12:18:02.891Z,953.78
2016-02-27T12:19:02.893Z,953.78
2016-02-27T12:20:02.896Z,953.72
2016-02-27T12:21:02.898Z,953.7
2016-02-27T12:22:02.886Z,953.76
2016-02-27T12:23:02.889Z,953.73
2016-02-27T12:24:02.892Z,953.72
2016-02-27T12:25:02.894Z,953.71
2016-02-27T12:26:02.897Z,953.67
2016-02-27T12:27:02.900Z,953.69
2016-02-27T12:28:02.902Z,953.67
2016-02-27T12:29:02.905Z,953.7
2016-02-27T12:30:02.908Z,953.64